»·PEaware :: SWA210 KLAS-KSUN

SWA210 :: KLAS-KSUN

FLIGHT INFORMATION

Flight Status: Arrived
Operator:
Southwest Airlines
More flights by this operator :: More flights under this callsign
Pilot: Anonymous 16446 (16446)
Aircraft: BOEING 737-200
(B732)
More flights by this aircraft type
Origin: KLAS McCarran Intl
United States
Destination: KSUN Friedman Meml
United States
More flights between these airports :: More routes between these airports
Route: +TWF V484 KINZE HLE
File this flight plan on PilotEdge
Remarks:
Altitude:
(Current/Filed)
33,000ft
Speed:
(Current/Filed)
450kts
Departed: 05-Dec-17 08:26 PM
Arrived: 05-Dec-17 09:37 PM
Distance/Time
Traveled:
447nm/1:10
Distance/Time
To Go:
Arrived

Flight Plot

Page will automatically refresh every two minutes.

Flight plan parsing failed; only flown route is shown


Map Options




Map Legend


Flown Route
Filed Route
Departure Airport
Arrival Airport
Navaid (VOR, NDB)
Fix

Horizontal Profiles

Position Reports

Time Latitude Longitude Heading Altitude Ground
Speed
05-Dec-17 20:06 36.082497 -115.153306 49 2123ft 0kts
05-Dec-17 20:07 36.082497 -115.153306 49 2123ft 0kts
05-Dec-17 20:08 36.082497 -115.153306 49 2123ft 0kts
05-Dec-17 20:09 36.082497 -115.153306 49 2123ft 0kts
05-Dec-17 20:10 36.082497 -115.153306 49 2123ft 0kts
05-Dec-17 20:11 36.082497 -115.153306 49 2123ft 0kts
05-Dec-17 20:12 36.082497 -115.153306 49 2123ft 0kts
05-Dec-17 20:13 36.082497 -115.153306 49 2123ft 0kts
05-Dec-17 20:14 36.082497 -115.153306 49 2123ft 0kts
05-Dec-17 20:15 36.082497 -115.153306 49 2123ft 0kts
05-Dec-17 20:16 36.082465 -115.153352 49 2123ft 2kts
05-Dec-17 20:17 36.081996 -115.153438 310 2123ft 2kts
05-Dec-17 20:18 36.081923 -115.153231 283 2123ft 0kts
05-Dec-17 20:19 36.081923 -115.153232 283 2123ft 0kts
05-Dec-17 20:20 36.081923 -115.153232 283 2123ft 0kts
05-Dec-17 20:21 36.081923 -115.153232 283 2123ft 0kts
05-Dec-17 20:22 36.081847 -115.153566 212 2123ft 8kts
05-Dec-17 20:23 36.081160 -115.152150 140 2123ft 0kts
05-Dec-17 20:24 36.081160 -115.152150 140 2123ft 0kts
05-Dec-17 20:25 36.081160 -115.152150 140 2123ft 0kts
05-Dec-17 20:26 36.081160 -115.152150 140 2123ft 0kts
05-Dec-17 20:27 36.078864 -115.151971 186 2123ft 19kts
05-Dec-17 20:28 36.078052 -115.159107 271 2123ft 19kts
05-Dec-17 20:29 36.077990 -115.163716 272 2123ft 0kts
05-Dec-17 20:30 36.078089 -115.164928 298 2123ft 9kts
05-Dec-17 20:31 36.100918 -115.152142 26 2358ft 187kts
05-Dec-17 20:32 36.139143 -115.094974 62 5172ft 255kts
05-Dec-17 20:33 36.172911 -115.012396 62 7825ft 276kts
05-Dec-17 20:34 36.218756 -114.935178 42 9966ft 287kts
05-Dec-17 20:35 36.283720 -114.875976 31 12002ft 297kts
05-Dec-17 20:36 36.353999 -114.819607 33 13907ft 305kts
05-Dec-17 20:37 36.424636 -114.759669 34 15463ft 313kts
05-Dec-17 20:38 36.497238 -114.696802 34 16499ft 335kts
05-Dec-17 20:39 36.575826 -114.628095 35 17988ft 349kts
05-Dec-17 20:40 36.656226 -114.557308 34 19494ft 358kts
05-Dec-17 20:41 36.738098 -114.485306 35 20907ft 366kts
05-Dec-17 20:42 36.821841 -114.411261 34 22226ft 373kts
05-Dec-17 20:43 36.906778 -114.336024 36 23446ft 380kts
05-Dec-17 20:44 36.993249 -114.258336 35 24590ft 387kts
05-Dec-17 20:45 37.081494 -114.179475 35 25658ft 394kts
05-Dec-17 20:46 37.171505 -114.100388 35 26654ft 400kts
05-Dec-17 20:47 37.262593 -114.018607 35 27589ft 406kts
05-Dec-17 20:48 37.354937 -113.935583 35 28465ft 412kts
05-Dec-17 20:49 37.448284 -113.851348 35 29285ft 417kts
05-Dec-17 20:50 37.542852 -113.765754 35 30057ft 422kts
05-Dec-17 20:51 37.638444 -113.678936 35 30782ft 427kts
05-Dec-17 20:52 37.735142 -113.590746 35 31466ft 432kts
05-Dec-17 20:53 37.832760 -113.501710 35 32109ft 436kts
05-Dec-17 20:54 37.939195 -113.434501 359 32631ft 440kts
05-Dec-17 20:55 38.061985 -113.456668 351 32746ft 456kts
05-Dec-17 20:56 38.188161 -113.481013 351 32735ft 462kts
05-Dec-17 20:57 38.315538 -113.505555 351 32735ft 464kts
05-Dec-17 20:58 38.443031 -113.530083 351 32734ft 465kts
05-Dec-17 20:59 38.570523 -113.554556 351 32734ft 465kts
05-Dec-17 21:00 38.698249 -113.579032 351 32734ft 465kts
05-Dec-17 21:01 38.826136 -113.603497 351 32734ft 466kts
05-Dec-17 21:02 38.953922 -113.627899 351 32734ft 466kts
05-Dec-17 21:03 39.082014 -113.652314 351 32734ft 466kts
05-Dec-17 21:04 39.209475 -113.676564 351 32734ft 466kts
05-Dec-17 21:05 39.337807 -113.700941 351 32734ft 467kts
05-Dec-17 21:06 39.465886 -113.725225 351 32734ft 467kts
05-Dec-17 21:07 39.593899 -113.749455 351 32734ft 467kts
05-Dec-17 21:08 39.722250 -113.773704 351 32734ft 467kts
05-Dec-17 21:09 39.850232 -113.797826 351 32734ft 467kts
05-Dec-17 21:10 39.978295 -113.821929 351 32271ft 464kts
05-Dec-17 21:11 40.105152 -113.845767 351 31520ft 458kts
05-Dec-17 21:12 40.230014 -113.869187 351 30808ft 453kts
05-Dec-17 21:13 40.354147 -113.892429 351 30091ft 448kts
05-Dec-17 21:14 40.476425 -113.915282 351 29411ft 444kts
05-Dec-17 21:15 40.592891 -113.937010 351 28783ft 439kts
05-Dec-17 21:16 40.712997 -113.959379 351 28155ft 435kts
05-Dec-17 21:17 40.832089 -113.981520 352 27553ft 431kts
05-Dec-17 21:18 40.949982 -114.003400 352 26980ft 428kts
05-Dec-17 21:19 41.073107 -114.026208 352 25404ft 465kts
05-Dec-17 21:20 41.197792 -114.049265 352 25081ft 456kts
05-Dec-17 21:21 41.322960 -114.072367 352 24536ft 452kts
05-Dec-17 21:22 41.444167 -114.109841 341 24040ft 448kts
05-Dec-17 21:23 41.561444 -114.157219 344 23995ft 435kts
05-Dec-17 21:24 41.677817 -114.199652 345 24001ft 434kts
05-Dec-17 21:25 41.794270 -114.241347 345 24001ft 435kts
05-Dec-17 21:26 41.911266 -114.283167 345 23768ft 441kts
05-Dec-17 21:27 42.031496 -114.326276 345 23464ft 445kts
05-Dec-17 21:28 42.150485 -114.368989 345 22973ft 442kts
05-Dec-17 21:29 42.248631 -114.404343 345 22598ft 440kts
05-Dec-17 21:30 42.366265 -114.447008 345 22121ft 436kts
05-Dec-17 21:31 42.484274 -114.478175 357 21556ft 433kts
05-Dec-17 21:32 42.622256 -114.462660 8 20716ft 427kts
05-Dec-17 21:33 42.719638 -114.444191 8 19965ft 420kts
05-Dec-17 21:34 42.832776 -114.422986 8 19784ft 405kts
05-Dec-17 21:35 42.946605 -114.401712 8 18008ft 410kts
05-Dec-17 21:36 43.055996 -114.381205 8 16701ft 402kts
05-Dec-17 21:37 43.158717 -114.334548 22 15017ft 392kts
05-Dec-17 21:38 43.254438 -114.280382 22 11714ft 363kts
05-Dec-17 21:39 43.343348 -114.248373 354 9398ft 307kts
05-Dec-17 21:40 43.421882 -114.262491 355 7351ft 253kts
05-Dec-17 21:41 43.476460 -114.271506 337 5797ft 147kts
05-Dec-17 21:42 43.502965 -114.294863 326 5302ft 22kts
05-Dec-17 21:43 43.503657 -114.296600 239 5302ft 2kts
05-Dec-17 21:44 43.505189 -114.299149 303 5302ft 7kts
05-Dec-17 21:45 43.505503 -114.300024 232 5302ft 0kts

Navigation Log

Ident Type
Flight plan parsing failed, navigation log unavailable